createdAt,value
2018-10-06T00:00:01.913Z,13.62
2018-10-06T00:01:01.914Z,13.67
2018-10-06T00:02:01.795Z,13.65
2018-10-06T00:03:01.796Z,13.56
2018-10-06T00:04:01.676Z,13.54
2018-10-06T00:05:01.680Z,13.65
2018-10-06T00:06:01.679Z,13.60
2018-10-06T00:07:01.558Z,13.54
2018-10-06T00:08:01.562Z,13.49
2018-10-06T00:09:01.447Z,13.47
2018-10-06T00:10:01.443Z,13.50
2018-10-06T00:11:01.443Z,13.47
2018-10-06T00:12:01.326Z,13.44
2018-10-06T00:13:01.326Z,13.46
2018-10-06T00:14:01.205Z,13.46
2018-10-06T00:15:01.208Z,13.42
2018-10-06T00:16:01.208Z,13.39
2018-10-06T00:17:01.088Z,13.31
2018-10-06T00:18:00.970Z,13.31
2018-10-06T00:19:00.970Z,13.20
2018-10-06T00:20:00.971Z,13.16
2018-10-06T00:21:00.974Z,13.25
2018-10-06T00:22:00.855Z,13.15
2018-10-06T00:23:00.734Z,13.16
2018-10-06T00:24:00.735Z,13.16
2018-10-06T00:25:00.618Z,13.16
2018-10-06T00:26:00.741Z,13.22
2018-10-06T00:27:00.619Z,13.16
2018-10-06T00:28:00.501Z,13.18
2018-10-06T00:29:00.622Z,13.04
2018-10-06T00:30:00.383Z,13.13
2018-10-06T00:31:00.382Z,13.18
2018-10-06T00:32:00.265Z,13.16
2018-10-06T00:33:03.745Z,13.25
2018-10-06T00:34:00.316Z,13.27
2018-10-06T00:35:00.146Z,13.20
2018-10-06T00:36:00.204Z,13.27
2018-10-06T00:36:59.963Z,13.23
2018-10-06T00:38:00.082Z,13.16
2018-10-06T00:38:59.963Z,13.03
2018-10-06T00:39:59.843Z,13.08
2018-10-06T00:40:59.797Z,12.93
2018-10-06T00:41:59.793Z,12.86
2018-10-06T00:42:59.851Z,12.79
2018-10-06T00:43:59.606Z,12.85
2018-10-06T00:44:59.564Z,12.78
2018-10-06T00:45:59.566Z,12.68
2018-10-06T00:46:59.444Z,12.62
2018-10-06T00:47:59.558Z,12.65
2018-10-06T00:48:59.367Z,12.67
2018-10-06T00:49:59.331Z,12.65
2018-10-06T00:50:59.250Z,12.65
2018-10-06T00:51:59.208Z,12.75
2018-10-06T00:52:59.248Z,12.78
2018-10-06T00:53:59.092Z,12.83
2018-10-06T00:54:59.090Z,12.94
2018-10-06T00:55:59.018Z,12.94
2018-10-06T00:56:58.974Z,12.97
2018-10-06T00:57:58.973Z,12.94
2018-10-06T00:58:58.853Z,13.05
2018-10-06T00:59:58.854Z,13.09
2018-10-06T01:00:58.738Z,13.05
2018-10-06T01:01:58.740Z,13.22
2018-10-06T01:02:58.662Z,13.19
2018-10-06T01:03:58.618Z,13.31
2018-10-06T01:04:58.538Z,13.35
2018-10-06T01:05:58.535Z,13.33
2018-10-06T01:06:58.498Z,13.31
2018-10-06T01:07:58.414Z,13.38
2018-10-06T01:08:58.418Z,13.30
2018-10-06T01:09:58.303Z,13.18
2018-10-06T01:10:58.262Z,13.19
2018-10-06T01:11:58.185Z,13.12
2018-10-06T01:12:58.177Z,13.12
2018-10-06T01:13:58.143Z,13.04
2018-10-06T01:14:58.028Z,13.12
2018-10-06T01:15:58.026Z,12.91
2018-10-06T01:16:57.947Z,12.91
2018-10-06T01:17:57.946Z,12.87
2018-10-06T01:18:57.821Z,12.87
2018-10-06T01:19:57.790Z,12.80
2018-10-06T01:20:57.791Z,12.75
2018-10-06T01:21:57.677Z,12.73
2018-10-06T01:22:57.719Z,12.62
2018-10-06T01:23:57.588Z,12.62
2018-10-06T01:24:57.555Z,12.64
2018-10-06T01:25:57.476Z,12.54
2018-10-06T01:26:57.436Z,12.64
2018-10-06T01:27:57.476Z,12.65
2018-10-06T01:28:57.321Z,12.60
2018-10-06T01:29:57.362Z,12.72
2018-10-06T01:30:57.247Z,12.61
2018-10-06T01:31:57.202Z,12.62
2018-10-06T01:32:57.240Z,12.61
2018-10-06T01:33:57.086Z,12.64
2018-10-06T01:34:57.085Z,12.73
2018-10-06T01:35:56.981Z,12.82
2018-10-06T01:36:56.966Z,12.75
2018-10-06T01:37:56.966Z,12.87
2018-10-06T01:38:56.847Z,12.95
2018-10-06T01:39:56.848Z,12.98
2018-10-06T01:40:56.734Z,13.00
2018-10-06T01:41:56.731Z,12.93
2018-10-06T01:42:56.662Z,12.93
2018-10-06T01:43:56.613Z,12.97
2018-10-06T01:44:56.615Z,12.86
2018-10-06T01:45:56.494Z,12.91
2018-10-06T01:46:56.424Z,12.82
2018-10-06T01:47:56.378Z,12.85
2018-10-06T01:48:56.398Z,12.94
2018-10-06T01:49:56.328Z,12.91
2018-10-06T01:50:56.262Z,12.86
2018-10-06T01:51:56.179Z,12.80
2018-10-06T01:52:56.140Z,12.93
2018-10-06T01:53:56.152Z,12.98
2018-10-06T01:54:56.024Z,12.95
2018-10-06T01:55:56.032Z,12.86
2018-10-06T01:56:55.916Z,12.83
2018-10-06T01:57:55.906Z,12.76
2018-10-06T01:58:55.908Z,12.73
2018-10-06T01:59:55.834Z,12.70
2018-10-06T02:00:55.708Z,12.62
2018-10-06T02:01:55.669Z,12.65
2018-10-06T02:02:55.670Z,12.62
2018-10-06T02:03:55.561Z,12.65
2018-10-06T02:04:55.590Z,12.64
2018-10-06T02:05:55.554Z,12.61
2018-10-06T02:06:55.438Z,12.62
2018-10-06T02:07:55.351Z,12.45
2018-10-06T02:08:55.317Z,12.49
2018-10-06T02:09:55.317Z,12.31
2018-10-06T02:10:55.237Z,12.27
2018-10-06T02:11:55.199Z,12.24
2018-10-06T02:12:55.202Z,12.20
2018-10-06T02:13:55.081Z,12.13
2018-10-06T02:14:54.999Z,12.09
2018-10-06T02:15:55.000Z,12.00
2018-10-06T02:16:54.964Z,12.02
2018-10-06T02:17:54.850Z,12.00
2018-10-06T02:18:54.846Z,11.94
2018-10-06T02:19:54.769Z,11.90
2018-10-06T02:20:54.727Z,11.86
2018-10-06T02:21:54.728Z,11.73
2018-10-06T02:22:54.610Z,11.72
2018-10-06T02:23:54.610Z,11.69
2018-10-06T02:24:54.498Z,11.62
2018-10-06T02:25:54.492Z,11.62
2018-10-06T02:26:54.494Z,11.60
2018-10-06T02:27:54.413Z,11.55
2018-10-06T02:28:54.293Z,11.65
2018-10-06T02:29:54.297Z,11.68
2018-10-06T02:30:54.259Z,11.65
2018-10-06T02:31:54.146Z,11.69
2018-10-06T02:32:54.178Z,11.72
2018-10-06T02:33:54.059Z,11.83
2018-10-06T02:34:54.021Z,11.84
2018-10-06T02:35:53.942Z,11.90
2018-10-06T02:36:53.952Z,12.12
2018-10-06T02:37:53.904Z,12.27
2018-10-06T02:38:53.818Z,12.40
2018-10-06T02:39:53.787Z,12.47
2018-10-06T02:40:53.788Z,12.57
2018-10-06T02:41:53.671Z,12.64
2018-10-06T02:42:53.590Z,12.62
2018-10-06T02:43:53.552Z,12.62
2018-10-06T02:44:53.465Z,12.62
2018-10-06T02:45:53.552Z,12.60
2018-10-06T02:46:53.432Z,12.72
2018-10-06T02:47:53.357Z,12.78
2018-10-06T02:48:53.316Z,12.83
2018-10-06T02:49:53.232Z,12.82
2018-10-06T02:50:53.318Z,12.85
2018-10-06T02:51:53.109Z,12.90
2018-10-06T02:52:53.078Z,13.00
2018-10-06T02:53:53.080Z,12.94
2018-10-06T02:54:52.993Z,12.91
2018-10-06T02:55:53.085Z,12.86
2018-10-06T02:56:52.876Z,12.82
2018-10-06T02:57:52.846Z,12.68
2018-10-06T02:58:52.965Z,12.67
2018-10-06T02:59:52.846Z,12.73
2018-10-06T03:00:52.846Z,12.76
2018-10-06T03:01:52.848Z,12.86
2018-10-06T03:02:52.731Z,12.87
2018-10-06T03:03:52.609Z,12.93
2018-10-06T03:04:52.611Z,12.94
2018-10-06T03:05:52.492Z,12.87
2018-10-06T03:06:52.612Z,12.90
2018-10-06T03:07:52.494Z,13.05
2018-10-06T03:08:52.379Z,13.04
2018-10-06T03:09:52.495Z,13.08
2018-10-06T03:10:52.256Z,13.03
2018-10-06T03:11:52.258Z,12.94
2018-10-06T03:12:52.151Z,12.90
2018-10-06T03:13:52.139Z,12.86
2018-10-06T03:14:52.140Z,12.76
2018-10-06T03:15:52.022Z,12.68
2018-10-06T03:16:52.142Z,12.65
2018-10-06T03:17:51.902Z,12.61
2018-10-06T03:18:51.906Z,12.62
2018-10-06T03:19:51.785Z,12.70
2018-10-06T03:20:51.787Z,12.55
2018-10-06T03:21:51.786Z,12.54
2018-10-06T03:22:51.669Z,12.57
2018-10-06T03:23:51.670Z,12.47
2018-10-06T03:24:51.549Z,12.46
2018-10-06T03:25:51.551Z,12.43
2018-10-06T03:26:51.550Z,12.47
2018-10-06T03:27:51.432Z,12.40
2018-10-06T03:28:51.440Z,12.37
2018-10-06T03:29:51.313Z,12.45
2018-10-06T03:30:51.326Z,12.47
2018-10-06T03:31:51.324Z,12.46
2018-10-06T03:32:51.323Z,12.43
2018-10-06T03:33:51.080Z,12.43
2018-10-06T03:34:51.079Z,12.53
2018-10-06T03:35:51.081Z,12.46
2018-10-06T03:36:50.960Z,12.46
2018-10-06T03:37:51.082Z,12.47
2018-10-06T03:38:50.845Z,12.46
2018-10-06T03:39:50.844Z,12.42
2018-10-06T03:40:50.732Z,12.37
2018-10-06T03:41:50.727Z,12.43
2018-10-06T03:42:50.727Z,12.53
2018-10-06T03:43:50.610Z,12.37
2018-10-06T03:44:50.609Z,12.40
2018-10-06T03:45:50.495Z,12.32
2018-10-06T03:46:50.491Z,12.35
2018-10-06T03:47:50.492Z,12.36
2018-10-06T03:48:50.372Z,12.36
2018-10-06T03:49:50.376Z,12.35
2018-10-06T03:50:50.256Z,12.35
2018-10-06T03:51:50.255Z,12.28
2018-10-06T03:52:50.257Z,12.32
2018-10-06T03:53:50.142Z,12.31
2018-10-06T03:54:50.138Z,12.36
2018-10-06T03:55:50.020Z,12.29
2018-10-06T03:56:49.900Z,12.39
2018-10-06T03:57:49.900Z,12.32
2018-10-06T03:58:50.026Z,12.35
2018-10-06T03:59:49.719Z,12.42
2018-10-06T04:00:49.719Z,12.35
2018-10-06T04:01:49.720Z,12.32
2018-10-06T04:02:49.601Z,12.46
2018-10-06T04:03:49.548Z,12.50
2018-10-06T04:04:49.502Z,12.43
2018-10-06T04:05:49.557Z,12.42
2018-10-06T04:06:49.365Z,12.50
2018-10-06T04:07:49.361Z,12.50
2018-10-06T04:08:49.319Z,12.50
2018-10-06T04:09:49.208Z,12.57
2018-10-06T04:10:49.129Z,12.65
2018-10-06T04:11:49.086Z,12.61
2018-10-06T04:12:49.085Z,12.65
2018-10-06T04:13:49.090Z,12.64
2018-10-06T04:14:48.970Z,12.62
2018-10-06T04:15:48.889Z,12.60
2018-10-06T04:16:48.847Z,12.54
2018-10-06T04:17:48.778Z,12.43
2018-10-06T04:18:48.766Z,12.43
2018-10-06T04:19:48.733Z,12.32
2018-10-06T04:20:48.609Z,12.35
2018-10-06T04:21:48.613Z,12.31
2018-10-06T04:22:48.605Z,12.27
2018-10-06T04:23:48.530Z,12.35
2018-10-06T04:24:48.415Z,12.27
2018-10-06T04:25:48.372Z,12.24
2018-10-06T04:26:48.371Z,12.27
2018-10-06T04:27:48.291Z,12.22
2018-10-06T04:28:48.254Z,12.22
2018-10-06T04:29:48.255Z,12.22
2018-10-06T04:30:48.134Z,12.10
2018-10-06T04:31:48.052Z,12.04
2018-10-06T04:32:48.017Z,12.02
2018-10-06T04:33:48.016Z,11.87
2018-10-06T04:34:47.993Z,11.86
2018-10-06T04:35:47.941Z,11.75
2018-10-06T04:36:47.825Z,11.75
2018-10-06T04:37:47.781Z,11.66
2018-10-06T04:38:47.694Z,11.65
2018-10-06T04:39:50.543Z,11.55
2018-10-06T04:40:47.664Z,11.52
2018-10-06T04:41:47.545Z,11.57
2018-10-06T04:42:47.544Z,11.59
2018-10-06T04:43:47.431Z,11.59
2018-10-06T04:44:47.428Z,11.59
2018-10-06T04:45:47.428Z,11.59
2018-10-06T04:46:47.347Z,11.84
2018-10-06T04:47:47.311Z,12.10
2018-10-06T04:48:47.191Z,12.20
2018-10-06T04:49:47.191Z,12.28
2018-10-06T04:50:47.077Z,12.36
2018-10-06T04:51:47.114Z,12.47
2018-10-06T04:52:46.995Z,12.46
2018-10-06T04:53:46.980Z,12.58
2018-10-06T04:54:46.871Z,12.65
2018-10-06T04:55:46.840Z,12.67
2018-10-06T04:56:46.877Z,12.46
2018-10-06T04:57:46.723Z,12.45
2018-10-06T04:58:46.720Z,12.42
2018-10-06T04:59:46.641Z,12.28
2018-10-06T05:00:46.603Z,12.36
2018-10-06T05:01:52.044Z,12.24
2018-10-06T05:02:46.484Z,12.24
2018-10-06T05:03:46.421Z,12.20
2018-10-06T05:04:46.367Z,12.15
2018-10-06T05:05:46.367Z,12.12
2018-10-06T05:06:46.369Z,11.95
2018-10-06T05:07:46.249Z,11.99
2018-10-06T05:08:46.168Z,12.02
2018-10-06T05:09:46.131Z,12.06
2018-10-06T05:10:46.062Z,12.17
2018-10-06T05:11:46.065Z,12.21
2018-10-06T05:12:46.016Z,12.13
2018-10-06T05:13:45.909Z,12.21
2018-10-06T05:14:45.898Z,12.20
2018-10-06T05:15:45.898Z,12.04
2018-10-06T05:16:45.898Z,12.02
2018-10-06T05:17:45.704Z,12.02
2018-10-06T05:18:45.668Z,12.04
2018-10-06T05:19:45.665Z,12.06
2018-10-06T05:20:45.557Z,11.88
2018-10-06T05:21:45.675Z,11.78
2018-10-06T05:22:45.463Z,11.73
2018-10-06T05:23:45.591Z,11.70
2018-10-06T05:24:45.350Z,11.55
2018-10-06T05:25:45.321Z,11.48
2018-10-06T05:26:45.316Z,11.47
2018-10-06T05:27:45.195Z,11.33
2018-10-06T05:28:45.207Z,11.32
2018-10-06T05:29:45.099Z,11.32
2018-10-06T05:30:45.078Z,11.30
2018-10-06T05:31:45.076Z,11.32
2018-10-06T05:32:44.960Z,11.27
2018-10-06T05:33:44.877Z,11.32
2018-10-06T05:34:44.843Z,11.30
2018-10-06T05:35:44.847Z,11.30
2018-10-06T05:36:44.763Z,11.36
2018-10-06T05:37:44.730Z,11.45
2018-10-06T05:38:44.641Z,11.51
2018-10-06T05:39:44.653Z,11.57
2018-10-06T05:40:44.514Z,11.59
2018-10-06T05:41:44.517Z,11.47
2018-10-06T05:42:44.487Z,11.52
2018-10-06T05:43:44.370Z,11.59
2018-10-06T05:44:44.365Z,11.51
2018-10-06T05:45:44.366Z,11.55
2018-10-06T05:46:44.250Z,11.52
2018-10-06T05:47:44.248Z,11.50
2018-10-06T05:48:44.129Z,11.51
2018-10-06T05:49:44.048Z,11.54
2018-10-06T05:50:44.051Z,11.55
2018-10-06T05:51:44.013Z,11.50
2018-10-06T05:52:43.897Z,11.54
2018-10-06T05:53:43.893Z,11.54
2018-10-06T05:54:43.813Z,11.62
2018-10-06T05:55:43.821Z,11.66
2018-10-06T05:56:43.696Z,11.62
2018-10-06T05:57:43.659Z,11.70
2018-10-06T05:58:43.660Z,11.68
2018-10-06T05:59:43.543Z,11.83
2018-10-06T06:00:43.570Z,11.90
2018-10-06T06:01:43.461Z,11.88
2018-10-06T06:02:43.462Z,11.87
2018-10-06T06:03:43.344Z,12.06
2018-10-06T06:04:43.307Z,12.02
2018-10-06T06:05:43.305Z,12.04
2018-10-06T06:06:43.224Z,12.06
2018-10-06T06:07:43.187Z,12.02
2018-10-06T06:08:43.112Z,12.12
2018-10-06T06:09:43.078Z,12.03
2018-10-06T06:10:43.069Z,12.07
2018-10-06T06:11:42.951Z,12.12
2018-10-06T06:12:42.951Z,12.02
2018-10-06T06:13:42.834Z,12.10
2018-10-06T06:14:42.833Z,12.07
2018-10-06T06:15:42.870Z,12.12
2018-10-06T06:16:42.716Z,12.20
2018-10-06T06:17:42.716Z,12.15
2018-10-06T06:18:42.599Z,12.12
2018-10-06T06:19:42.510Z,12.17
2018-10-06T06:20:42.482Z,12.17
2018-10-06T06:21:42.601Z,12.20
2018-10-06T06:22:42.481Z,12.21
2018-10-06T06:23:42.418Z,12.27
2018-10-06T06:24:42.363Z,12.31
2018-10-06T06:25:42.245Z,12.27
2018-10-06T06:26:42.246Z,12.25
2018-10-06T06:27:42.374Z,12.35
2018-10-06T06:28:42.249Z,12.37
2018-10-06T06:29:42.128Z,12.46
2018-10-06T06:30:42.132Z,12.50
2018-10-06T06:31:42.011Z,12.64
2018-10-06T06:32:42.133Z,12.65
2018-10-06T06:33:41.892Z,12.68
2018-10-06T06:34:42.014Z,12.79
2018-10-06T06:35:41.773Z,12.78
2018-10-06T06:36:41.775Z,12.78
2018-10-06T06:37:41.775Z,12.91
2018-10-06T06:38:41.657Z,12.91
2018-10-06T06:39:41.779Z,12.87
2018-10-06T06:40:41.544Z,12.86
2018-10-06T06:41:41.538Z,12.87
2018-10-06T06:42:41.420Z,13.01
2018-10-06T06:43:41.440Z,12.93
2018-10-06T06:44:41.424Z,12.97
2018-10-06T06:45:41.311Z,13.03
2018-10-06T06:46:41.428Z,13.01
2018-10-06T06:47:41.191Z,13.05
2018-10-06T06:48:41.185Z,13.20
2018-10-06T06:49:41.067Z,13.09
2018-10-06T06:50:41.068Z,13.13
2018-10-06T06:51:41.068Z,13.16
2018-10-06T06:52:40.950Z,13.13
2018-10-06T06:53:40.954Z,13.16
2018-10-06T06:54:40.834Z,13.00
2018-10-06T06:55:40.835Z,13.04
2018-10-06T06:56:40.837Z,13.13
2018-10-06T06:57:40.715Z,13.08
2018-10-06T06:58:40.716Z,13.15
2018-10-06T06:59:40.599Z,13.30
2018-10-06T07:00:40.597Z,13.30
2018-10-06T07:01:40.600Z,13.42
2018-10-06T07:02:40.481Z,13.42
2018-10-06T07:03:40.361Z,13.46
2018-10-06T07:04:40.363Z,13.53
2018-10-06T07:05:40.434Z,13.72
2018-10-06T07:06:40.364Z,13.74
2018-10-06T07:07:40.245Z,13.60
2018-10-06T07:08:40.246Z,13.65
2018-10-06T07:09:40.130Z,13.72
2018-10-06T07:10:40.009Z,13.81
2018-10-06T07:11:50.687Z,13.89
2018-10-06T07:12:40.084Z,13.97
2018-10-06T07:13:40.011Z,14.08
2018-10-06T07:14:39.890Z,14.30
2018-10-06T07:15:39.773Z,14.41
2018-10-06T07:16:39.774Z,14.55
2018-10-06T07:17:39.773Z,14.58
2018-10-06T07:18:39.724Z,14.81
2018-10-06T07:19:39.659Z,15.06
2018-10-06T07:20:39.537Z,15.21
2018-10-06T07:21:39.538Z,15.49
2018-10-06T07:22:39.538Z,15.95
2018-10-06T07:23:39.419Z,16.29
2018-10-06T07:24:39.422Z,16.42
2018-10-06T07:25:39.373Z,16.46
2018-10-06T07:26:39.243Z,16.61
2018-10-06T07:27:39.240Z,16.69
2018-10-06T07:28:39.277Z,16.87
2018-10-06T07:29:39.121Z,17.01
2018-10-06T07:30:38.953Z,17.26
2018-10-06T07:31:39.002Z,17.12
2018-10-06T07:32:38.956Z,17.11
2018-10-06T07:33:38.836Z,17.02
2018-10-06T07:34:38.882Z,17.06
2018-10-06T07:35:38.718Z,17.16
2018-10-06T07:36:38.722Z,17.23
2018-10-06T07:37:38.722Z,17.59
2018-10-06T07:38:45.561Z,17.89
2018-10-06T07:39:38.601Z,18.20
2018-10-06T07:40:38.487Z,18.41
2018-10-06T07:41:38.483Z,18.38
2018-10-06T07:42:38.528Z,18.37
2018-10-06T07:43:38.405Z,18.50
2018-10-06T07:44:38.366Z,18.74
2018-10-06T07:45:38.295Z,19.14
2018-10-06T07:46:38.246Z,19.08
2018-10-06T07:47:38.168Z,19.16
2018-10-06T07:48:38.168Z,19.14
2018-10-06T07:49:38.131Z,19.09
2018-10-06T07:50:38.057Z,19.02
2018-10-06T07:51:38.011Z,18.86
2018-10-06T07:52:38.012Z,18.74
2018-10-06T07:53:38.013Z,18.59
2018-10-06T07:54:37.894Z,18.62
2018-10-06T07:55:37.894Z,18.45
2018-10-06T07:56:37.831Z,18.41
2018-10-06T07:57:37.816Z,18.16
2018-10-06T07:58:37.703Z,17.86
2018-10-06T07:59:37.658Z,17.72
2018-10-06T08:00:37.698Z,17.68
2018-10-06T08:01:37.573Z,17.74
2018-10-06T08:02:37.545Z,17.97
2018-10-06T08:03:37.546Z,17.87
2018-10-06T08:04:37.467Z,17.85
2018-10-06T08:05:37.455Z,17.87
2018-10-06T08:06:37.423Z,17.90
2018-10-06T08:07:37.306Z,18.07
2018-10-06T08:08:37.339Z,18.43
2018-10-06T08:09:37.219Z,18.62
2018-10-06T08:10:37.188Z,18.78
2018-10-06T08:11:37.189Z,18.98
2018-10-06T08:12:37.103Z,19.47
2018-10-06T08:13:37.104Z,19.86
2018-10-06T08:14:37.069Z,19.95
2018-10-06T08:15:36.989Z,19.76
2018-10-06T08:16:36.951Z,20.25
2018-10-06T08:17:36.953Z,20.69
2018-10-06T08:18:36.953Z,20.50
2018-10-06T08:19:36.835Z,20.72
2018-10-06T08:20:36.876Z,20.72
2018-10-06T08:21:36.741Z,20.87
2018-10-06T08:22:36.718Z,21.07
2018-10-06T08:23:36.722Z,21.24
2018-10-06T08:24:36.623Z,21.37
2018-10-06T08:25:36.637Z,21.40
2018-10-06T08:26:36.602Z,21.64
2018-10-06T08:27:36.603Z,21.64
2018-10-06T08:28:36.484Z,21.46
2018-10-06T08:29:36.486Z,21.73
2018-10-06T08:30:36.386Z,21.73
2018-10-06T08:31:36.367Z,21.51
2018-10-06T08:32:36.407Z,21.64
2018-10-06T08:33:36.285Z,21.67
2018-10-06T08:34:36.249Z,21.77
2018-10-06T08:35:36.248Z,21.80
2018-10-06T08:36:36.169Z,21.95
2018-10-06T08:37:36.264Z,21.88
2018-10-06T08:38:36.132Z,21.70
2018-10-06T08:39:36.052Z,21.69
2018-10-06T08:40:36.014Z,21.67
2018-10-06T08:41:36.015Z,21.54
2018-10-06T08:42:36.078Z,21.37
2018-10-06T08:43:35.897Z,21.20
2018-10-06T08:44:35.899Z,21.18
2018-10-06T08:45:35.826Z,21.36
2018-10-06T08:46:35.795Z,21.57
2018-10-06T08:47:35.823Z,21.67
2018-10-06T08:48:35.704Z,21.96
2018-10-06T08:49:35.686Z,22.28
2018-10-06T08:50:35.664Z,22.39
2018-10-06T08:51:35.587Z,22.47
2018-10-06T08:52:35.592Z,22.50
2018-10-06T08:53:35.553Z,22.65
2018-10-06T08:54:35.555Z,22.57
2018-10-06T08:55:35.438Z,22.22
2018-10-06T08:56:35.435Z,21.83
2018-10-06T08:57:35.434Z,21.62
2018-10-06T08:58:35.339Z,21.60
2018-10-06T08:59:35.351Z,21.37
2018-10-06T09:00:35.325Z,21.72
2018-10-06T09:01:35.230Z,21.96
2018-10-06T09:02:35.201Z,22.15
2018-10-06T09:03:35.198Z,22.36
2018-10-06T09:04:35.200Z,22.65
2018-10-06T09:05:35.112Z,22.81
2018-10-06T09:06:35.080Z,22.78
2018-10-06T09:07:34.993Z,22.99
2018-10-06T09:08:34.962Z,23.12
2018-10-06T09:09:34.999Z,23.43
2018-10-06T09:10:34.876Z,23.74
2018-10-06T09:11:34.847Z,23.87
2018-10-06T09:12:34.846Z,24.11
2018-10-06T09:13:34.765Z,24.18
2018-10-06T09:14:34.765Z,24.02
2018-10-06T09:15:34.732Z,24.17
2018-10-06T09:16:34.651Z,24.03
2018-10-06T09:17:34.649Z,23.71
2018-10-06T09:18:34.611Z,23.51
2018-10-06T09:19:34.533Z,23.43
2018-10-06T09:20:34.528Z,23.68
2018-10-06T09:21:34.494Z,23.87
2018-10-06T09:22:34.416Z,24.06
2018-10-06T09:23:34.377Z,24.30
2018-10-06T09:24:34.377Z,24.35
2018-10-06T09:25:34.379Z,24.26
2018-10-06T09:26:34.259Z,24.01
2018-10-06T09:27:34.261Z,23.87
2018-10-06T09:28:34.180Z,23.77
2018-10-06T09:29:34.264Z,23.99
2018-10-06T09:30:34.144Z,24.29
2018-10-06T09:31:34.068Z,24.54
2018-10-06T09:32:34.037Z,24.92
2018-10-06T09:33:34.026Z,24.84
2018-10-06T09:34:34.026Z,24.43
2018-10-06T09:35:33.948Z,24.06
2018-10-06T09:36:33.914Z,24.10
2018-10-06T09:37:33.829Z,23.91
2018-10-06T09:38:33.824Z,23.78
2018-10-06T09:39:33.913Z,23.48
2018-10-06T09:40:33.714Z,23.40
2018-10-06T09:41:33.710Z,23.51
2018-10-06T09:42:33.863Z,23.87
2018-10-06T09:43:33.590Z,24.01
2018-10-06T09:44:33.677Z,24.02
2018-10-06T09:45:33.558Z,24.05
2018-10-06T09:46:33.469Z,23.98
2018-10-06T09:47:33.561Z,24.14
2018-10-06T09:48:33.441Z,24.30
2018-10-06T09:49:33.441Z,24.24
2018-10-06T09:50:33.442Z,24.40
2018-10-06T09:51:33.444Z,24.38
2018-10-06T09:52:33.323Z,24.28
2018-10-06T09:53:33.336Z,24.43
2018-10-06T09:54:33.326Z,24.92
2018-10-06T09:55:33.326Z,25.17
2018-10-06T09:56:33.208Z,25.28
2018-10-06T09:57:33.209Z,25.13
2018-10-06T09:58:33.089Z,24.99
2018-10-06T09:59:33.182Z,24.50
2018-10-06T10:00:33.212Z,24.24
2018-10-06T10:01:32.975Z,24.48
2018-10-06T10:02:32.975Z,24.93
2018-10-06T10:03:32.976Z,24.69
2018-10-06T10:04:32.857Z,24.85
2018-10-06T10:05:33.008Z,24.86
2018-10-06T10:06:32.857Z,24.74
2018-10-06T10:07:32.740Z,24.13
2018-10-06T10:08:32.741Z,24.01
2018-10-06T10:09:32.740Z,24.32
2018-10-06T10:10:32.742Z,24.21
2018-10-06T10:11:32.623Z,24.10
2018-10-06T10:12:32.820Z,23.77
2018-10-06T10:13:32.505Z,23.66
2018-10-06T10:14:32.505Z,23.40
2018-10-06T10:15:32.613Z,23.31
2018-10-06T10:16:32.387Z,23.36
2018-10-06T10:17:32.738Z,23.50
2018-10-06T10:18:32.492Z,23.51
2018-10-06T10:19:32.273Z,23.32
2018-10-06T10:20:32.271Z,22.87
2018-10-06T10:21:32.277Z,23.02
2018-10-06T10:22:32.311Z,23.36
2018-10-06T10:23:32.355Z,23.43
2018-10-06T10:24:32.037Z,23.43
2018-10-06T10:25:32.038Z,23.24
2018-10-06T10:26:32.039Z,23.17
2018-10-06T10:27:34.080Z,23.10
2018-10-06T10:28:32.126Z,23.37
2018-10-06T10:29:31.920Z,23.65
2018-10-06T10:30:31.802Z,23.61
2018-10-06T10:31:31.803Z,23.51
2018-10-06T10:32:31.804Z,23.62
2018-10-06T10:33:31.805Z,24.20
2018-10-06T10:34:31.715Z,24.58
2018-10-06T10:35:31.687Z,25.04
2018-10-06T10:36:31.568Z,24.91
2018-10-06T10:37:31.614Z,24.93
2018-10-06T10:38:31.690Z,24.42
2018-10-06T10:39:31.568Z,24.11
2018-10-06T10:40:31.452Z,23.88
2018-10-06T10:41:31.452Z,24.29
2018-10-06T10:42:31.332Z,24.17
2018-10-06T10:43:31.457Z,23.88
2018-10-06T10:44:31.387Z,23.98
2018-10-06T10:45:31.216Z,23.87
2018-10-06T10:46:31.336Z,23.76
2018-10-06T10:47:31.217Z,23.63
2018-10-06T10:48:31.101Z,23.40
2018-10-06T10:49:31.103Z,23.15
2018-10-06T10:50:31.043Z,23.28
2018-10-06T10:51:31.102Z,23.63
2018-10-06T10:52:30.989Z,23.59
2018-10-06T10:53:30.863Z,23.23
2018-10-06T10:54:30.855Z,22.94
2018-10-06T10:55:30.850Z,23.15
2018-10-06T10:56:30.798Z,23.44
2018-10-06T10:57:30.644Z,23.31
2018-10-06T10:58:30.635Z,23.17
2018-10-06T10:59:30.729Z,23.05
2018-10-06T11:00:30.581Z,23.09
2018-10-06T11:01:30.518Z,23.06
2018-10-06T11:02:30.444Z,22.91
2018-10-06T11:03:30.515Z,22.93
2018-10-06T11:04:30.450Z,22.83
2018-10-06T11:05:30.323Z,22.54
2018-10-06T11:06:30.289Z,22.59
2018-10-06T11:07:30.283Z,22.63
2018-10-06T11:08:30.211Z,23.00
2018-10-06T11:09:30.219Z,23.20
2018-10-06T11:10:30.164Z,23.46
2018-10-06T11:11:30.087Z,23.81
2018-10-06T11:12:30.046Z,24.17
2018-10-06T11:13:30.047Z,24.43
2018-10-06T11:14:29.975Z,24.35
2018-10-06T11:15:29.973Z,24.54
2018-10-06T11:16:29.928Z,24.54
2018-10-06T11:17:29.850Z,24.39
2018-10-06T11:18:29.814Z,24.33
2018-10-06T11:19:29.730Z,24.14
2018-10-06T11:20:29.695Z,23.88
2018-10-06T11:21:29.734Z,23.91
2018-10-06T11:22:29.697Z,24.02
2018-10-06T11:23:29.582Z,23.91
2018-10-06T11:24:29.586Z,23.98
2018-10-06T11:25:29.492Z,24.11
2018-10-06T11:26:29.457Z,23.87
2018-10-06T11:27:29.494Z,23.63
2018-10-06T11:28:29.380Z,23.34
2018-10-06T11:29:29.341Z,22.69
2018-10-06T11:30:29.339Z,22.23
2018-10-06T11:31:29.257Z,22.11
2018-10-06T11:32:29.256Z,21.82
2018-10-06T11:33:29.223Z,21.66
2018-10-06T11:34:29.144Z,21.73
2018-10-06T11:35:29.105Z,21.98
2018-10-06T11:36:29.105Z,22.08
2018-10-06T11:37:29.084Z,22.11
2018-10-06T11:38:29.024Z,22.14
2018-10-06T11:39:28.987Z,22.45
2018-10-06T11:40:28.874Z,22.48
2018-10-06T11:41:28.871Z,23.02
2018-10-06T11:42:28.793Z,23.65
2018-10-06T11:43:28.792Z,23.81
2018-10-06T11:44:28.753Z,23.84
2018-10-06T11:45:28.666Z,23.43
2018-10-06T11:46:28.637Z,23.43
2018-10-06T11:47:28.677Z,23.76
2018-10-06T11:48:28.639Z,24.20
2018-10-06T11:49:28.517Z,23.76
2018-10-06T11:50:28.598Z,23.23
2018-10-06T11:51:28.519Z,23.17
2018-10-06T11:52:28.400Z,22.85
2018-10-06T11:53:28.432Z,22.88
2018-10-06T11:54:28.323Z,23.00
2018-10-06T11:55:28.284Z,23.34
2018-10-06T11:56:28.289Z,23.51
2018-10-06T11:57:28.205Z,23.55
2018-10-06T11:58:28.205Z,23.40
2018-10-06T11:59:28.100Z,23.18
2018-10-06T12:00:28.088Z,23.02
2018-10-06T12:01:28.093Z,22.91
2018-10-06T12:02:27.980Z,22.91
2018-10-06T12:03:27.980Z,22.81
2018-10-06T12:04:27.934Z,22.51
2018-10-06T12:05:27.932Z,22.39
2018-10-06T12:06:27.816Z,22.43
2018-10-06T12:07:27.816Z,22.50
2018-10-06T12:08:27.815Z,22.65
2018-10-06T12:09:27.742Z,22.75
2018-10-06T12:10:27.698Z,23.06
2018-10-06T12:11:27.699Z,23.24
2018-10-06T12:12:27.579Z,23.25
2018-10-06T12:13:27.580Z,23.78
2018-10-06T12:14:27.494Z,23.68
2018-10-06T12:15:27.462Z,23.23
2018-10-06T12:16:27.474Z,22.93
2018-10-06T12:17:27.351Z,22.62
2018-10-06T12:18:27.345Z,22.35
2018-10-06T12:19:27.264Z,22.14
2018-10-06T12:20:27.254Z,21.98
2018-10-06T12:21:27.272Z,21.95
2018-10-06T12:22:27.146Z,21.79
2018-10-06T12:23:27.117Z,21.80
2018-10-06T12:24:27.121Z,22.02
2018-10-06T12:25:27.027Z,22.32
2018-10-06T12:26:27.034Z,22.43
2018-10-06T12:27:27.047Z,22.44
2018-10-06T12:28:26.909Z,22.25
2018-10-06T12:29:26.876Z,22.28
2018-10-06T12:30:26.885Z,22.10
2018-10-06T12:31:26.795Z,22.25
2018-10-06T12:32:26.759Z,22.41
2018-10-06T12:33:26.759Z,22.38
2018-10-06T12:34:26.645Z,22.47
2018-10-06T12:35:26.760Z,22.80
2018-10-06T12:36:26.642Z,22.87
2018-10-06T12:37:26.525Z,22.78
2018-10-06T12:38:26.525Z,22.69
2018-10-06T12:39:26.445Z,22.20
2018-10-06T12:40:26.406Z,22.25
2018-10-06T12:41:26.448Z,22.44
2018-10-06T12:42:26.324Z,22.80
2018-10-06T12:43:26.290Z,23.31
2018-10-06T12:44:26.296Z,23.78
2018-10-06T12:45:26.205Z,23.96
2018-10-06T12:46:26.214Z,24.11
2018-10-06T12:47:26.172Z,23.61
2018-10-06T12:48:26.093Z,23.03
2018-10-06T12:49:26.055Z,22.90
2018-10-06T12:50:25.972Z,22.91
2018-10-06T12:51:25.965Z,23.20